Time;durP1;ratioP1;P1;durP2;ratioP2;P2;SDS_P1;SDS_P2;PMS_P1;PMS_P2;Temp;Humidity;BMP_temperature;BMP_pressure;BME280_temperature;BME280_humidity;BME280_pressure;Samples;Min_cycle;Max_cycle;Signal;HPM_P1;HPM_P2
2021/12/18 00:02:11;;;;;;;0.30;0.20;;;;;;;4.00;87.55;95453.69;5135907;27;20427;-56
2021/12/18 00:04:41;;;;;;;5.10;0.77;;;;;;;4.06;87.52;95456.19;5136123;27;20435;-55
2021/12/18 00:07:09;;;;;;;0.30;0.30;;;;;;;4.07;88.08;95463.06;5136038;27;20462;-54
2021/12/18 00:09:39;;;;;;;0.30;0.20;;;;;;;2.72;90.40;95280.38;5135999;27;20458;-54
2021/12/18 00:12:09;;;;;;;0.30;0.30;;;;;;;3.81;92.48;95461.63;5136057;27;20483;-54
2021/12/18 00:14:38;;;;;;;0.30;0.20;;;;;;;3.85;88.46;95446.22;5135969;27;20480;-54
2021/12/18 00:17:06;;;;;;;0.40;0.40;;;;;;;3.87;87.34;95462.56;5136217;27;20509;-54
2021/12/18 00:19:34;;;;;;;0.40;0.40;;;;;;;3.78;88.77;95456.81;5135814;27;20469;-54
2021/12/18 00:22:05;;;;;;;0.97;0.97;;;;;;;3.94;88.68;95465.06;5136134;27;20475;-54
2021/12/18 00:24:34;;;;;;;2.20;0.40;;;;;;;3.60;88.94;95472.59;5135772;27;20521;-54
2021/12/18 00:27:02;;;;;;;2.10;1.90;;;;;;;3.95;86.72;95471.91;5135571;27;20435;-54
2021/12/18 00:29:31;;;;;;;0.30;0.30;;;;;;;3.99;84.58;95478.31;5135974;27;20457;-55
2021/12/18 00:31:59;;;;;;;0.57;0.57;;;;;;;3.77;86.38;95468.31;5135677;27;20426;-54
2021/12/18 00:34:27;;;;;;;0.30;0.20;;;;;;;3.89;85.42;95468.38;5135587;27;21009;-54
2021/12/18 00:36:56;;;;;;;0.47;0.47;;;;;;;4.29;81.55;95479.06;5135802;27;20473;-54
2021/12/18 00:39:28;;;;;;;0.30;0.20;;;;;;;4.09;81.27;95483.81;5135396;27;20470;-54
2021/12/18 00:42:25;;;;;;;0.30;0.20;;;;;;;4.39;81.42;95484.53;5135734;27;20498;-54
2021/12/18 00:44:55;;;;;;;0.30;0.30;;;;;;;4.52;78.16;95476.47;5135696;27;20410;-54
2021/12/18 00:47:23;;;;;;;0.57;0.57;;;;;;;4.25;76.62;95457.72;5135256;27;20466;-54
2021/12/18 00:49:52;;;;;;;0.30;0.20;;;;;;;4.40;79.64;95480.91;5135664;27;20423;-54
2021/12/18 00:52:20;;;;;;;0.30;0.20;;;;;;;4.18;76.48;95393.25;5134381;27;20513;-54
2021/12/18 00:54:51;;;;;;;0.30;0.20;;;;;;;4.80;75.70;95475.78;5135174;27;20968;-54
2021/12/18 00:57:20;;;;;;;0.30;0.20;;;;;;;4.75;73.97;95463.34;5135182;27;20426;-53
2021/12/18 00:59:49;;;;;;;0.30;0.20;;;;;;;4.76;75.89;95480.66;5134707;27;20901;-53
2021/12/18 01:02:18;;;;;;;0.30;0.20;;;;;;;4.31;76.38;95488.28;5134675;27;20461;-54
2021/12/18 01:04:46;;;;;;;0.30;0.20;;;;;;;3.63;79.66;95466.91;5135117;27;20426;-54
2021/12/18 01:07:15;;;;;;;0.30;0.20;;;;;;;3.66;83.83;95497.09;5134949;27;20519;-53
2021/12/18 01:09:57;;;;;;;0.30;0.20;;;;;;;4.01;84.58;95471.00;5134955;27;20461;-53
2021/12/18 01:12:32;;;;;;;0.30;0.20;;;;;;;3.70;83.38;95496.44;5134856;27;20509;-54
2021/12/18 01:15:12;;;;;;;0.53;0.37;;;;;;;2.93;85.04;95402.91;5134870;27;20521;-54
2021/12/18 01:23:14;;;;;;;0.30;0.20;;;;;;;3.40;88.33;95484.34;5134616;27;20433;-54
2021/12/18 01:25:42;;;;;;;0.50;0.30;;;;;;;3.12;89.99;95429.88;5134978;27;20515;-54
2021/12/18 01:28:12;;;;;;;1.23;1.23;;;;;;;3.51;91.08;95473.13;5134464;27;21186;-54
2021/12/18 01:30:40;;;;;;;0.30;0.20;;;;;;;3.14;88.94;95412.91;5134897;27;20455;-53
2021/12/18 01:33:09;;;;;;;0.30;0.30;;;;;;;3.84;85.26;95448.03;5134771;27;20513;-53
2021/12/18 01:35:37;;;;;;;0.70;0.70;;;;;;;3.31;86.06;95394.78;5134463;27;20426;-54
2021/12/18 01:38:06;;;;;;;0.50;0.50;;;;;;;3.25;85.92;95449.84;5133650;27;20517;-54
2021/12/18 01:40:34;;;;;;;0.87;0.87;;;;;;;3.24;88.39;95449.06;5134364;27;20465;-54
2021/12/18 01:51:47;;;;;;;0.30;0.20;;;;;;;3.89;84.85;95462.31;5129224;27;20481;-54
2021/12/18 01:54:16;;;;;;;2.10;1.17;;;;;;;3.64;85.05;95423.94;5134462;27;20430;-54
2021/12/18 01:56:45;;;;;;;0.93;0.93;;;;;;;3.65;85.02;95462.22;5134130;27;20419;-54
2021/12/18 01:59:13;;;;;;;0.30;0.20;;;;;;;3.87;88.07;95432.91;5133773;27;20506;-54
2021/12/18 02:01:43;;;;;;;0.33;0.20;;;;;;;4.35;84.22;95462.41;5133692;27;21008;-53
2021/12/18 02:04:11;;;;;;;0.30;0.20;;;;;;;4.49;77.85;95501.34;5132997;27;20510;-54
2021/12/18 02:06:40;;;;;;;0.30;0.20;;;;;;;4.72;75.94;95460.38;5133932;27;20442;-54
2021/12/18 02:09:09;;;;;;;0.30;0.20;;;;;;;4.11;76.50;95437.97;5133669;27;20561;-54
2021/12/18 02:11:38;;;;;;;0.30;0.20;;;;;;;3.17;78.10;95320.03;5134244;27;20449;-54
2021/12/18 02:20:09;;;;;;;0.30;0.20;;;;;;;4.15;77.29;95417.34;5133727;27;20465;-54
2021/12/18 02:22:39;;;;;;;0.30;0.20;;;;;;;4.31;77.20;95450.75;5133913;27;20860;-53
2021/12/18 02:25:08;;;;;;;0.30;0.20;;;;;;;4.31;79.58;95462.06;5133554;27;20523;-54
2021/12/18 02:27:36;;;;;;;0.30;0.20;;;;;;;4.08;78.02;95387.78;5133585;27;20462;-54
2021/12/18 02:30:07;;;;;;;0.40;0.30;;;;;;;4.33;81.14;95464.44;5133420;27;20489;-54
2021/12/18 02:32:36;;;;;;;0.30;0.20;;;;;;;4.07;83.43;95443.91;5133384;27;20874;-53
2021/12/18 02:35:05;;;;;;;0.30;0.20;;;;;;;3.83;85.99;95430.72;5133786;27;20419;-53
2021/12/18 02:37:43;;;;;;;0.83;0.83;;;;;;;3.70;88.00;95436.16;5133352;27;20461;-53
2021/12/18 02:43:10;;;;;;;0.30;0.20;;;;;;;3.45;92.91;95432.88;5089960;28;20429;-54
2021/12/18 02:45:38;;;;;;;0.57;0.30;;;;;;;3.45;92.18;95442.56;5123173;27;20537;-54
2021/12/18 02:48:06;;;;;;;0.30;0.20;;;;;;;3.09;94.63;95415.41;5133194;27;20513;-54
2021/12/18 02:50:39;;;;;;;0.30;0.20;;;;;;;2.72;94.72;95366.72;5133157;27;20434;-54
2021/12/18 02:53:08;;;;;;;0.30;0.30;;;;;;;3.33;93.95;95442.50;5133149;27;20423;-54
2021/12/18 02:55:37;;;;;;;0.40;0.40;;;;;;;3.75;91.96;95464.31;5132875;27;20513;-54
2021/12/18 02:58:06;;;;;;;0.30;0.20;;;;;;;2.91;91.89;95355.19;5133398;27;20449;-54
2021/12/18 03:00:34;;;;;;;0.30;0.20;;;;;;;3.68;92.17;95434.78;5132953;27;20569;-54
2021/12/18 03:03:08;;;;;;;0.30;0.20;;;;;;;3.31;93.03;95476.00;5133384;27;20438;-54
2021/12/18 03:05:45;;;;;;;0.30;0.20;;;;;;;3.34;93.89;95461.66;5133313;28;20425;-54
2021/12/18 03:08:20;;;;;;;0.77;0.77;;;;;;;2.78;90.99;95378.13;5133210;28;20430;-54
2021/12/18 03:22:41;;;;;;;0.30;0.20;;;;;;;3.69;87.41;95471.25;5113683;27;20473;-54
2021/12/18 03:25:10;;;;;;;0.30;0.30;;;;;;;3.49;90.28;95457.59;5136162;27;20472;-54
2021/12/18 03:27:41;;;;;;;0.70;0.67;;;;;;;2.70;88.40;95360.09;5137253;27;20953;-54
2021/12/18 03:30:10;;;;;;;0.30;0.23;;;;;;;3.61;88.60;95447.19;5136674;27;20469;-54
2021/12/18 03:32:38;;;;;;;0.30;0.20;;;;;;;3.19;86.09;95337.09;5137012;27;20509;-54
2021/12/18 03:35:09;;;;;;;0.30;0.20;;;;;;;4.22;83.40;95463.44;5136833;27;20434;-54
2021/12/18 03:37:37;;;;;;;0.40;0.23;;;;;;;4.20;83.76;95468.06;5137042;27;20431;-54
2021/12/18 03:40:08;;;;;;;2.23;0.37;;;;;;;4.50;81.26;95460.16;5136998;27;20513;-54
2021/12/18 03:42:37;;;;;;;0.30;0.20;;;;;;;4.66;80.35;95469.94;5136535;27;20445;-54
2021/12/18 03:45:09;;;;;;;0.40;0.40;;;;;;;4.77;77.30;95473.59;5136900;27;20458;-54
2021/12/18 03:47:38;;;;;;;0.30;0.20;;;;;;;4.87;76.23;95473.81;5136477;27;20608;-54
2021/12/18 03:50:07;;;;;;;0.30;0.20;;;;;;;5.01;75.34;95475.97;5136433;27;20539;-54
2021/12/18 03:52:36;;;;;;;0.30;0.20;;;;;;;5.18;75.42;95473.47;5136698;27;20514;-54
2021/12/18 03:55:05;;;;;;;0.30;0.20;;;;;;;4.23;77.88;95419.59;5136426;27;20451;-54
2021/12/18 03:57:34;;;;;;;0.30;0.20;;;;;;;3.99;86.68;95486.16;5136340;27;20513;-54
2021/12/18 04:00:03;;;;;;;0.30;0.20;;;;;;;3.57;89.89;95480.06;5136098;27;20526;-54
2021/12/18 04:02:33;;;;;;;0.30;0.20;;;;;;;3.50;93.34;95492.47;5136220;27;20937;-53
2021/12/18 04:05:02;;;;;;;0.30;0.20;;;;;;;3.26;96.03;95494.19;5135983;27;20473;-53
2021/12/18 04:07:30;;;;;;;0.30;0.20;;;;;;;2.16;96.26;95311.19;5136488;27;20451;-53
2021/12/18 04:09:58;;;;;;;0.30;0.20;;;;;;;3.68;97.20;95492.44;5136132;27;20542;-54
2021/12/18 04:12:27;;;;;;;0.30;0.20;;;;;;;3.36;100.00;95502.31;5136404;27;20850;-54
2021/12/18 04:14:55;;;;;;;0.30;0.20;;;;;;;3.43;97.65;95484.69;5136120;27;20918;-54
2021/12/18 04:17:23;;;;;;;0.30;0.20;;;;;;;3.37;100.00;95414.84;5135775;27;20506;-54
2021/12/18 04:19:53;;;;;;;0.93;0.60;;;;;;;4.22;96.88;95508.03;5135940;27;20434;-54
2021/12/18 04:22:22;;;;;;;0.40;0.30;;;;;;;4.45;93.74;95507.25;5136167;27;20439;-54
2021/12/18 04:24:50;;;;;;;0.30;0.20;;;;;;;4.62;90.59;95475.88;5135943;27;20462;-54
2021/12/18 04:27:18;;;;;;;0.30;0.20;;;;;;;4.65;86.67;95476.25;5135391;27;20506;-54
2021/12/18 04:29:47;;;;;;;0.30;0.20;;;;;;;4.49;87.04;95500.53;5135651;27;20527;-54
2021/12/18 04:32:15;;;;;;;0.30;0.20;;;;;;;4.23;88.19;95493.06;5136034;27;20446;-54
2021/12/18 04:34:44;;;;;;;0.30;0.20;;;;;;;4.50;86.29;95502.13;5135949;27;20424;-54
2021/12/18 04:37:13;;;;;;;0.30;0.20;;;;;;;4.36;86.53;95506.78;5135802;27;20517;-54
2021/12/18 04:39:42;;;;;;;0.30;0.20;;;;;;;4.21;86.84;95508.22;5135944;27;20850;-53
2021/12/18 04:42:10;;;;;;;1.13;1.03;;;;;;;2.68;87.12;95299.34;5135538;27;20462;-54
2021/12/18 04:44:39;;;;;;;0.30;0.20;;;;;;;3.37;91.50;95516.19;5134593;27;20509;-54
2021/12/18 04:47:07;;;;;;;0.60;0.60;;;;;;;3.36;95.41;95515.41;5135643;27;20513;-55
2021/12/18 04:49:36;;;;;;;0.67;0.67;;;;;;;3.77;91.72;95523.34;5135614;27;20569;-55
2021/12/18 04:52:05;;;;;;;0.50;0.50;;;;;;;3.85;88.62;95524.88;5135235;27;20841;-54
2021/12/18 04:54:35;;;;;;;0.40;0.30;;;;;;;4.13;85.49;95527.72;5135454;27;20411;-54
2021/12/18 04:57:04;;;;;;;0.30;0.20;;;;;;;4.05;84.31;95527.25;5135521;27;20938;-54
2021/12/18 04:59:32;;;;;;;0.30;0.20;;;;;;;3.99;85.72;95541.25;5134905;27;20561;-54
2021/12/18 05:02:02;;;;;;;0.30;0.20;;;;;;;3.85;86.93;95540.59;5135104;27;20454;-55
2021/12/18 05:04:30;;;;;;;0.30;0.20;;;;;;;3.49;88.00;95525.72;5134835;27;20458;-55
2021/12/18 05:06:59;;;;;;;0.30;0.20;;;;;;;3.18;91.13;95539.78;5134936;27;20427;-55
2021/12/18 05:09:27;;;;;;;1.57;1.50;;;;;;;2.93;95.11;95548.72;5134191;27;20426;-55
2021/12/18 05:11:57;;;;;;;0.30;0.30;;;;;;;2.97;97.71;95553.28;5134950;27;20473;-54
2021/12/18 05:14:25;;;;;;;1.67;1.57;;;;;;;3.05;97.68;95533.88;5134953;27;20423;-53
2021/12/18 05:16:54;;;;;;;1.03;1.03;;;;;;;2.52;98.53;95481.25;5134915;27;20431;-54
2021/12/18 05:19:22;;;;;;;0.30;0.30;;;;;;;2.85;100.00;95560.25;5134630;27;20469;-54
2021/12/18 05:21:51;;;;;;;0.30;0.20;;;;;;;2.02;97.72;95394.19;5135059;27;20887;-54
2021/12/18 05:24:19;;;;;;;0.30;0.20;;;;;;;2.91;99.37;95563.84;5134892;27;20415;-54
2021/12/18 05:26:47;;;;;;;0.30;0.20;;;;;;;2.88;99.02;95561.66;5134693;27;20469;-54
2021/12/18 05:29:17;;;;;;;0.30;0.20;;;;;;;3.04;99.07;95580.22;5134892;27;20506;-54
2021/12/18 05:31:46;;;;;;;0.60;0.60;;;;;;;2.88;99.28;95585.22;5134368;27;20535;-54
2021/12/18 05:34:21;;;;;;;0.33;0.30;;;;;;;2.37;100.00;95520.00;5134416;27;20466;-55
2021/12/18 05:37:14;;;;;;;1.53;1.43;;;;;;;3.14;99.77;95598.84;5134362;27;20480;-54
2021/12/18 05:39:43;;;;;;;0.30;0.20;;;;;;;3.23;97.21;95583.66;5133090;27;21135;-55
2021/12/18 05:42:11;;;;;;;0.30;0.20;;;;;;;3.01;96.96;95574.63;5134240;27;20474;-54
2021/12/18 05:44:41;;;;;;;0.30;0.20;;;;;;;2.90;100.00;95585.78;5134196;27;20450;-54
2021/12/18 05:47:10;;;;;;;0.30;0.20;;;;;;;2.95;100.00;95596.41;5134228;27;20509;-54
2021/12/18 05:49:39;;;;;;;0.50;0.50;;;;;;;3.06;98.07;95596.50;5134266;27;20937;-54
2021/12/18 05:52:08;;;;;;;0.30;0.20;;;;;;;3.22;100.00;95589.91;5134267;27;20781;-54
2021/12/18 05:54:37;;;;;;;0.30;0.20;;;;;;;2.94;97.78;95592.19;5134254;27;20509;-53
2021/12/18 05:57:07;;;;;;;1.57;0.70;;;;;;;2.97;100.00;95597.00;5133977;27;20866;-54
2021/12/18 05:59:36;;;;;;;0.50;0.43;;;;;;;3.05;100.00;95592.28;5133642;27;20498;-54
2021/12/18 06:02:06;;;;;;;1.37;0.80;;;;;;;3.32;98.03;95603.31;5133881;27;20505;-53
2021/12/18 06:04:39;;;;;;;0.40;0.40;;;;;;;3.52;96.86;95600.47;5133823;27;20435;-54
2021/12/18 06:07:08;;;;;;;0.30;0.20;;;;;;;3.09;100.00;95540.28;5133689;27;20527;-54
2021/12/18 06:09:38;;;;;;;1.90;1.53;;;;;;;3.40;96.47;95604.84;5133642;27;20533;-54
2021/12/18 06:12:07;;;;;;;1.80;0.33;;;;;;;2.32;97.21;95501.53;5133473;27;20954;-54
2021/12/18 06:14:36;;;;;;;0.30;0.20;;;;;;;3.74;100.00;95607.69;5133604;27;20873;-54
2021/12/18 06:17:06;;;;;;;0.30;0.30;;;;;;;3.78;90.81;95611.47;5133557;27;20475;-54
2021/12/18 06:19:34;;;;;;;0.30;0.20;;;;;;;4.07;100.00;95607.31;5133598;27;20509;-54
2021/12/18 06:22:02;;;;;;;0.40;0.30;;;;;;;3.36;89.23;95533.75;5133239;27;20439;-56
2021/12/18 06:24:31;;;;;;;0.53;0.50;;;;;;;3.91;85.37;95614.97;5133010;27;20426;-53
2021/12/18 06:26:59;;;;;;;0.30;0.20;;;;;;;4.09;87.83;95615.75;5133301;27;20509;-53
2021/12/18 06:29:28;;;;;;;0.30;0.30;;;;;;;3.60;86.68;95616.72;5133129;27;20499;-53
2021/12/18 06:31:56;;;;;;;0.30;0.20;;;;;;;3.49;88.45;95614.03;5133060;27;20538;-54
2021/12/18 06:34:26;;;;;;;0.30;0.30;;;;;;;3.67;92.92;95614.81;5133531;27;20788;-54
2021/12/18 06:36:54;;;;;;;0.30;0.20;;;;;;;4.08;88.33;95611.50;5133091;27;20960;-54
2021/12/18 06:39:22;;;;;;;0.30;0.20;;;;;;;4.02;94.76;95511.94;5133363;27;20501;-54
2021/12/18 06:41:51;;;;;;;0.30;0.20;;;;;;;4.60;79.46;95609.19;5132936;27;20845;-53
2021/12/18 06:44:19;;;;;;;0.40;0.40;;;;;;;4.94;85.29;95593.50;5133030;27;20509;-53
2021/12/18 06:46:48;;;;;;;2.03;1.90;;;;;;;5.08;79.42;95592.22;5132804;27;20450;-53
2021/12/18 06:49:17;;;;;;;2.00;0.40;;;;;;;5.42;92.19;95601.16;5132836;27;20952;-53
2021/12/18 06:51:46;;;;;;;0.30;0.20;;;;;;;5.86;79.31;95594.47;5132788;27;20501;-53
2021/12/18 06:54:15;;;;;;;0.30;0.20;;;;;;;5.78;72.19;95605.34;5133182;27;20781;-52
2021/12/18 06:56:43;;;;;;;4.03;0.47;;;;;;;6.14;69.21;95588.44;5132929;27;20938;-52
2021/12/18 06:59:13;;;;;;;0.40;0.37;;;;;;;6.10;62.86;95597.81;5132822;27;20494;-51
2021/12/18 07:01:42;;;;;;;0.97;0.70;;;;;;;6.73;66.33;95593.19;5132629;27;21022;-51
2021/12/18 07:04:11;;;;;;;3.93;0.90;;;;;;;7.10;63.11;95588.25;5133116;28;20453;-54
2021/12/18 07:06:39;;;;;;;0.40;0.30;;;;;;;7.75;57.52;95593.66;5133015;28;20434;-52
2021/12/18 07:09:09;;;;;;;0.60;0.60;;;;;;;8.10;51.05;95590.66;5133209;27;20449;-53
2021/12/18 07:11:37;;;;;;;1.07;1.03;;;;;;;7.13;52.80;95598.34;5132549;28;20512;-52
2021/12/18 07:14:06;;;;;;;0.90;0.90;;;;;;;6.92;54.46;95601.69;5132668;28;20449;-52
2021/12/18 07:16:34;;;;;;;0.30;0.20;;;;;;;6.72;58.15;95603.97;5132571;28;20463;-52
2021/12/18 07:19:03;;;;;;;0.40;0.30;;;;;;;6.12;57.43;95606.31;5132678;28;21140;-54
2021/12/18 07:21:31;;;;;;;0.50;0.47;;;;;;;5.52;60.98;95621.59;5132914;28;20518;-53
2021/12/18 07:23:59;;;;;;;3.27;1.50;;;;;;;5.46;67.67;95617.28;5132977;27;20579;-52
2021/12/18 07:26:30;;;;;;;0.40;0.40;;;;;;;5.85;73.98;95623.63;5132935;28;20565;-52
2021/12/18 07:28:59;;;;;;;0.30;0.30;;;;;;;5.49;64.10;95628.09;5132616;28;20434;-52
2021/12/18 07:31:28;;;;;;;0.73;0.73;;;;;;;6.07;59.96;95580.69;5132399;28;20476;-51
2021/12/18 07:33:56;;;;;;;1.10;1.00;;;;;;;7.40;55.57;95632.72;5133039;28;20525;-53
2021/12/18 07:36:25;;;;;;;0.40;0.30;;;;;;;8.44;51.01;95631.75;5132775;27;20410;-52
2021/12/18 07:38:54;;;;;;;0.87;0.87;;;;;;;9.13;47.74;95624.75;5131706;28;20419;-52
2021/12/18 07:41:22;;;;;;;0.47;0.47;;;;;;;7.94;50.52;95633.75;5131725;28;20474;-52
2021/12/18 07:43:52;;;;;;;0.40;0.30;;;;;;;7.47;50.01;95631.53;5132509;28;21021;-52
2021/12/18 07:46:21;;;;;;;0.93;0.57;;;;;;;7.23;49.64;95637.22;5132308;28;20464;-52
2021/12/18 07:48:49;;;;;;;0.30;0.20;;;;;;;7.32;49.33;95638.41;5132638;28;20501;-52
2021/12/18 07:51:18;;;;;;;0.40;0.30;;;;;;;6.37;51.52;95633.13;5132158;28;20898;-52
2021/12/18 07:53:46;;;;;;;0.30;0.20;;;;;;;6.85;68.86;95632.66;5132290;28;20468;-52
2021/12/18 07:56:15;;;;;;;0.30;0.20;;;;;;;7.04;63.53;95634.81;5132263;28;20461;-52
2021/12/18 07:58:43;;;;;;;0.37;0.30;;;;;;;6.91;53.01;95639.59;5131950;28;20816;-51
2021/12/18 08:01:13;;;;;;;0.40;0.30;;;;;;;7.17;50.83;95625.78;5132193;27;20474;-51
2021/12/18 08:03:41;;;;;;;0.30;0.20;;;;;;;6.48;51.10;95642.00;5134791;27;20450;-52
2021/12/18 08:06:10;;;;;;;0.40;0.40;;;;;;;7.16;49.94;95615.50;5135670;27;20433;-51
2021/12/18 08:08:38;;;;;;;0.40;0.30;;;;;;;7.32;49.04;95655.03;5135069;27;20521;-52
2021/12/18 08:11:07;;;;;;;0.30;0.20;;;;;;;7.34;50.24;95654.78;5135356;27;20457;-52
2021/12/18 08:13:35;;;;;;;0.30;0.20;;;;;;;7.83;49.34;95651.28;5135776;27;20426;-51
2021/12/18 08:16:04;;;;;;;0.30;0.30;;;;;;;7.35;49.48;95654.56;5136315;27;20459;-51
2021/12/18 08:18:34;;;;;;;0.30;0.20;;;;;;;7.03;49.45;95662.19;5136260;27;20442;-51
2021/12/18 08:21:03;;;;;;;0.30;0.30;;;;;;;7.18;49.20;95661.66;5135619;27;20423;-51
2021/12/18 08:23:31;;;;;;;0.30;0.20;;;;;;;7.52;49.22;95671.16;5135720;27;20505;-52
2021/12/18 08:25:59;;;;;;;0.30;0.20;;;;;;;8.12;55.67;95675.69;5135667;27;20462;-52
2021/12/18 08:28:28;;;;;;;1.67;0.40;;;;;;;8.27;46.13;95678.56;5135903;27;20542;-51
2021/12/18 08:30:56;;;;;;;0.40;0.30;;;;;;;8.60;52.18;95667.84;5135318;27;20438;-52
2021/12/18 08:33:25;;;;;;;0.40;0.30;;;;;;;8.41;46.46;95682.41;5135793;27;20563;-52
2021/12/18 08:35:55;;;;;;;1.00;1.00;;;;;;;7.20;47.16;95682.50;5135409;27;20430;-52
2021/12/18 08:38:23;;;;;;;0.40;0.40;;;;;;;7.25;49.23;95683.41;5135613;27;20426;-51
2021/12/18 08:40:52;;;;;;;0.30;0.30;;;;;;;7.22;50.12;95686.50;5135695;27;20437;-52
2021/12/18 08:43:20;;;;;;;0.40;0.40;;;;;;;7.11;51.47;95690.00;5135726;27;20450;-52
2021/12/18 08:45:48;;;;;;;0.30;0.20;;;;;;;6.62;50.80;95667.81;5135175;27;20461;-52
2021/12/18 08:48:17;;;;;;;0.40;0.30;;;;;;;6.80;62.67;95600.97;5135096;27;20509;-52
2021/12/18 08:50:46;;;;;;;0.30;0.20;;;;;;;7.34;49.87;95695.13;5135417;27;20810;-52
2021/12/18 08:53:15;;;;;;;0.80;0.80;;;;;;;7.39;56.00;95702.31;5134442;27;20502;-52
2021/12/18 08:55:44;;;;;;;0.30;0.30;;;;;;;7.46;49.97;95706.41;5135098;27;20528;-52
2021/12/18 08:58:12;;;;;;;0.30;0.30;;;;;;;7.53;50.52;95708.88;5135022;27;20419;-53
2021/12/18 09:00:41;;;;;;;0.47;0.27;;;;;;;7.23;51.52;95682.84;5134907;27;20557;-52
2021/12/18 09:03:10;;;;;;;0.30;0.20;;;;;;;8.05;57.72;95704.09;5135256;27;20438;-53
2021/12/18 09:05:38;;;;;;;0.50;0.37;;;;;;;7.93;48.87;95692.84;5134720;27;20934;-52
2021/12/18 09:08:07;;;;;;;0.30;0.23;;;;;;;7.79;48.50;95686.34;5134859;27;20427;-52
2021/12/18 09:10:37;;;;;;;0.37;0.30;;;;;;;7.75;49.19;95701.84;5134839;27;20448;-52
2021/12/18 09:13:06;;;;;;;0.50;0.50;;;;;;;8.17;50.68;95689.75;5134388;27;20557;-52
2021/12/18 09:15:34;;;;;;;0.57;0.57;;;;;;;7.79;47.62;95673.13;5135047;27;20494;-51
2021/12/18 09:18:02;;;;;;;0.30;0.30;;;;;;;8.14;47.42;95686.81;5134620;27;20461;-52
2021/12/18 09:20:32;;;;;;;0.30;0.20;;;;;;;7.67;47.55;95647.66;5134692;27;20446;-51
2021/12/18 09:23:01;;;;;;;0.30;0.20;;;;;;;7.69;47.14;95682.50;5134382;27;20517;-51
2021/12/18 09:25:30;;;;;;;0.30;0.20;;;;;;;7.62;47.04;95576.34;5134664;27;20518;-51
2021/12/18 09:28:00;;;;;;;1.13;0.30;;;;;;;8.68;49.03;95682.44;5134537;27;20423;-52
2021/12/18 09:30:28;;;;;;;0.43;0.43;;;;;;;9.37;44.64;95672.78;5135033;27;20427;-51
2021/12/18 09:32:57;;;;;;;0.40;0.30;;;;;;;9.96;43.35;95676.13;5134604;27;20565;-52
2021/12/18 09:35:25;;;;;;;0.40;0.37;;;;;;;9.86;42.14;95668.13;5134605;27;20443;-52
2021/12/18 09:37:54;;;;;;;1.27;0.40;;;;;;;10.28;43.85;95670.75;5134539;27;20454;-52
2021/12/18 09:40:23;;;;;;;0.93;0.30;;;;;;;10.91;46.86;95673.09;5134610;27;20501;-53
2021/12/18 09:42:52;;;;;;;0.30;0.20;;;;;;;9.93;42.41;95669.50;5134142;27;20454;-56
2021/12/18 09:45:23;;;;;;;0.37;0.27;;;;;;;9.92;41.37;95682.97;5134147;27;20488;-53
2021/12/18 09:47:52;;;;;;;0.40;0.30;;;;;;;9.42;42.15;95641.91;5134448;27;20505;-54
2021/12/18 09:50:23;;;;;;;0.40;0.30;;;;;;;10.42;42.33;95674.53;5134488;27;20511;-54
2021/12/18 09:52:51;;;;;;;0.30;0.20;;;;;;;10.81;60.56;95654.50;5133955;27;20549;-55
2021/12/18 09:55:20;;;;;;;0.40;0.40;;;;;;;10.13;42.27;95680.22;5134124;27;20454;-54
2021/12/18 09:57:50;;;;;;;0.30;0.20;;;;;;;10.63;40.50;95597.47;5133921;27;20434;-54
2021/12/18 10:00:22;;;;;;;0.40;0.30;;;;;;;11.22;40.57;95665.97;5133676;27;20561;-55
2021/12/18 10:02:51;;;;;;;0.30;0.30;;;;;;;10.92;38.72;95644.72;5133060;27;20479;-56
2021/12/18 10:05:22;;;;;;;0.30;0.20;;;;;;;10.05;39.57;95664.78;5133707;27;20429;-57
2021/12/18 10:08:14;;;;;;;0.40;0.30;;;;;;;10.73;39.38;95652.34;5133634;27;20964;-58
2021/12/18 10:11:00;;;;;;;0.50;0.40;;;;;;;11.32;38.75;95600.44;5133589;27;20522;-58
2021/12/18 10:13:28;;;;;;;0.40;0.30;;;;;;;11.80;38.07;95662.00;5133881;27;20553;-56
2021/12/18 10:16:13;;;;;;;0.30;0.20;;;;;;;11.23;37.67;95663.03;5133596;27;20510;-57
2021/12/18 10:18:41;;;;;;;0.30;0.20;;;;;;;11.01;43.46;95656.38;5133777;27;20446;-57
2021/12/18 10:21:12;;;;;;;2.53;0.40;;;;;;;10.83;37.76;95655.03;5133258;27;20430;-56
2021/12/18 10:23:42;;;;;;;0.30;0.30;;;;;;;10.34;37.74;95670.53;5133413;27;20453;-57
2021/12/18 10:26:29;;;;;;;0.40;0.40;;;;;;;9.68;38.66;95671.19;5132991;27;20829;-58
2021/12/18 10:28:58;;;;;;;0.30;0.20;;;;;;;9.22;40.58;95662.91;5133072;27;20530;-59
2021/12/18 10:31:43;;;;;;;0.30;0.20;;;;;;;9.28;39.30;95616.94;5133117;27;20522;-58
2021/12/18 10:34:19;;;;;;;0.50;0.50;;;;;;;10.28;40.95;95668.09;5132961;27;20556;-56
2021/12/18 10:37:14;;;;;;;1.07;1.07;;;;;;;9.54;38.88;95670.81;5133430;27;20457;-55
2021/12/18 10:39:45;;;;;;;0.80;0.50;;;;;;;8.50;39.68;95670.34;5133090;27;20517;-55
2021/12/18 10:42:19;;;;;;;0.37;0.27;;;;;;;8.25;41.08;95673.47;5132856;27;20464;-54
2021/12/18 10:45:06;;;;;;;0.80;0.80;;;;;;;9.17;39.72;95662.06;5132995;27;20425;-54
2021/12/18 10:47:58;;;;;;;0.40;0.30;;;;;;;10.51;36.62;95641.16;5132613;27;20453;-56
2021/12/18 10:50:32;;;;;;;0.30;0.30;;;;;;;11.69;36.21;95663.88;5133092;27;20603;-57
2021/12/18 10:53:04;;;;;;;0.50;0.50;;;;;;;10.44;39.90;95550.53;5133182;27;20478;-56
2021/12/18 10:55:40;;;;;;;0.40;0.40;;;;;;;10.57;37.35;95650.75;5134892;27;20423;-57
2021/12/18 10:58:12;;;;;;;0.40;0.30;;;;;;;11.64;35.61;95647.91;5133682;27;20928;-58
2021/12/18 11:01:02;;;;;;;0.50;0.30;;;;;;;11.06;35.36;95629.88;5132002;27;20823;-58
2021/12/18 11:03:35;;;;;;;0.80;0.80;;;;;;;10.66;35.57;95649.16;5127408;27;20996;-57
2021/12/18 11:06:12;;;;;;;0.30;0.20;;;;;;;10.33;36.58;95639.78;5132846;27;20530;-57
2021/12/18 11:09:05;;;;;;;0.37;0.30;;;;;;;8.89;36.70;95658.63;5132757;28;20427;-57
2021/12/18 11:14:38;;;;;;;0.30;0.20;;;;;;;9.11;36.34;95652.50;5132740;28;20517;-55
2021/12/18 11:17:09;;;;;;;0.30;0.30;;;;;;;8.99;37.13;95501.94;5132909;28;20832;-55
2021/12/18 11:19:41;;;;;;;0.30;0.20;;;;;;;10.48;37.67;95657.59;5132525;28;20451;-54
2021/12/18 11:22:12;;;;;;;0.40;0.37;;;;;;;9.70;36.12;95659.28;5132983;27;20498;-58
2021/12/18 11:24:44;;;;;;;0.50;0.50;;;;;;;10.75;36.36;95647.63;5132241;28;21020;-59
2021/12/18 11:27:15;;;;;;;2.00;1.90;;;;;;;10.82;39.83;95641.00;5132862;28;20450;-59
2021/12/18 11:29:46;;;;;;;0.50;0.40;;;;;;;10.22;37.82;95647.97;5132862;28;20507;-59
2021/12/18 11:32:18;;;;;;;0.40;0.30;;;;;;;9.24;36.27;95644.13;5132549;28;20426;-59
2021/12/18 11:34:49;;;;;;;0.30;0.20;;;;;;;9.41;37.61;95650.88;5132397;28;21029;-57
2021/12/18 11:37:20;;;;;;;0.33;0.27;;;;;;;10.22;34.13;95642.66;5134844;27;20922;-54
2021/12/18 11:39:50;;;;;;;0.50;0.30;;;;;;;10.77;34.61;95643.66;5136591;27;20517;-55
2021/12/18 11:42:19;;;;;;;3.27;2.10;;;;;;;11.47;35.10;95639.44;5136567;27;20510;-55
2021/12/18 11:44:55;;;;;;;0.47;0.47;;;;;;;12.44;31.56;95580.50;5136732;27;20517;-55
2021/12/18 11:47:31;;;;;;;0.40;0.30;;;;;;;12.40;30.56;95629.94;5136467;27;20464;-54
2021/12/18 11:50:04;;;;;;;0.37;0.30;;;;;;;13.53;29.76;95618.34;5136410;27;20425;-54
2021/12/18 11:52:53;;;;;;;0.30;0.20;;;;;;;13.42;30.28;95617.63;5136281;27;20510;-53
2021/12/18 11:55:22;;;;;;;0.30;0.20;;;;;;;14.05;30.28;95612.22;5136243;27;20472;-54
2021/12/18 11:57:53;;;;;;;0.40;0.30;;;;;;;13.85;28.77;95570.59;5136229;27;20930;-53
2021/12/18 12:00:50;;;;;;;0.40;0.30;;;;;;;11.94;31.83;95607.28;5136418;27;20552;-53
2021/12/18 12:03:33;;;;;;;1.37;0.40;;;;;;;13.70;29.68;95608.06;5136148;27;20442;-53
2021/12/18 12:06:06;;;;;;;0.40;0.30;;;;;;;13.77;30.34;95619.16;5136065;27;20791;-54
2021/12/18 12:08:38;;;;;;;0.70;0.30;;;;;;;11.62;32.06;95602.25;5135959;27;20882;-53
2021/12/18 12:11:15;;;;;;;0.30;0.20;;;;;;;11.53;33.47;95624.31;5136566;27;20431;-54
2021/12/18 12:13:58;;;;;;;0.40;0.30;;;;;;;10.52;32.83;95618.91;5135711;27;20473;-54
2021/12/18 12:17:00;;;;;;;0.40;0.30;;;;;;;10.56;33.58;95612.84;5136384;27;20427;-54
2021/12/18 12:20:05;;;;;;;0.37;0.30;;;;;;;9.59;37.24;95612.63;5136089;27;20458;-54
2021/12/18 12:22:53;;;;;;;0.50;0.50;;;;;;;9.56;35.71;95607.88;5135705;27;20491;-54
2021/12/18 12:25:47;;;;;;;0.30;0.30;;;;;;;9.47;36.10;95614.66;5135806;27;20459;-54
2021/12/18 12:28:19;;;;;;;0.30;0.20;;;;;;;9.35;36.15;95606.13;5135918;27;20427;-52
2021/12/18 12:30:52;;;;;;;0.63;0.63;;;;;;;9.75;36.20;95606.38;5135465;27;20907;-53
2021/12/18 12:33:27;;;;;;;0.77;0.77;;;;;;;10.00;36.23;95603.84;5135356;27;20495;-52
2021/12/18 12:36:09;;;;;;;0.30;0.20;;;;;;;8.78;36.30;95540.66;5136027;27;20444;-52